Time;durP1;ratioP1;P1;durP2;ratioP2;P2;SDS_P1;SDS_P2;PMS_P1;PMS_P2;Temp;Humidity;BMP_temperature;BMP_pressure;BME280_temperature;BME280_humidity;BME280_pressure;Samples;Min_cycle;Max_cycle;Signal;HPM_P1;HPM_P2
2021/11/11 00:00:54;;;;;;;31.05;17.77;;;7.30;76.10;;;;;;5020102;28;20420;-76
2021/11/11 00:03:20;;;;;;;28.50;15.73;;;7.30;76.00;;;;;;5034964;28;20039;-76
2021/11/11 00:05:46;;;;;;;33.80;17.52;;;7.30;75.80;;;;;;5033529;28;20064;-75
2021/11/11 00:08:12;;;;;;;55.47;25.52;;;7.30;75.80;;;;;;5052931;28;20048;-76
2021/11/11 00:10:39;;;;;;;70.13;29.30;;;7.20;75.80;;;;;;5053365;28;20025;-76
2021/11/11 00:13:04;;;;;;;56.28;24.00;;;7.20;76.00;;;;;;5053491;28;20537;-76
2021/11/11 00:15:33;;;;;;;54.67;25.67;;;7.20;76.40;;;;;;5022512;28;20460;-76
2021/11/11 00:17:58;;;;;;;49.85;23.52;;;7.20;76.60;;;;;;5014694;28;20030;-76
2021/11/11 00:20:26;;;;;;;46.55;22.52;;;7.20;76.20;;;;;;5014707;28;20040;-76
2021/11/11 00:22:53;;;;;;;41.55;18.33;;;7.20;76.30;;;;;;5014094;28;20045;-76
2021/11/11 00:25:21;;;;;;;36.45;19.25;;;7.20;76.20;;;;;;5014748;28;20065;-76
2021/11/11 00:27:47;;;;;;;35.97;18.23;;;7.10;76.20;;;;;;5014958;28;20520;-76
2021/11/11 00:30:15;;;;;;;35.08;18.08;;;7.10;76.20;;;;;;5015713;28;20108;-76
2021/11/11 00:32:41;;;;;;;25.48;16.10;;;7.10;76.30;;;;;;5034597;28;20033;-76
2021/11/11 00:35:09;;;;;;;32.33;16.65;;;7.00;76.40;;;;;;5028788;28;20771;-76
2021/11/11 00:37:35;;;;;;;26.80;15.82;;;7.00;76.30;;;;;;5013854;28;20025;-76
2021/11/11 00:40:02;;;;;;;34.20;17.63;;;7.00;76.50;;;;;;5032054;28;20037;-76
2021/11/11 00:42:27;;;;;;;30.02;16.02;;;7.10;76.10;;;;;;5034290;28;20033;-76
2021/11/11 00:44:53;;;;;;;34.10;15.55;;;7.10;75.90;;;;;;5029696;28;20029;-76
2021/11/11 00:47:19;;;;;;;29.05;13.90;;;7.00;75.80;;;;;;5014332;28;20053;-76
2021/11/11 00:49:45;;;;;;;26.13;13.77;;;7.10;75.60;;;;;;5014847;28;20551;-76
2021/11/11 00:52:11;;;;;;;21.67;13.27;;;6.90;75.90;;;;;;5014143;28;20040;-76
2021/11/11 00:54:39;;;;;;;33.53;14.70;;;6.90;76.00;;;;;;5012906;28;20038;-76
2021/11/11 00:57:05;;;;;;;31.08;15.93;;;6.90;76.30;;;;;;5014506;28;20014;-76
2021/11/11 00:59:31;;;;;;;33.63;16.23;;;6.90;76.20;;;;;;5014548;28;20030;-76
2021/11/11 01:01:57;;;;;;;27.13;13.52;;;6.90;76.30;;;;;;5029148;28;20100;-76
2021/11/11 01:04:23;;;;;;;26.63;13.05;;;6.90;76.10;;;;;;5034278;28;20052;-76
2021/11/11 01:06:49;;;;;;;27.38;15.35;;;6.90;75.90;;;;;;5040993;28;20491;-76
2021/11/11 01:09:15;;;;;;;27.30;13.75;;;6.80;76.10;;;;;;5054503;28;20040;-76
2021/11/11 01:11:41;;;;;;;29.33;13.63;;;6.80;76.20;;;;;;5033182;28;20060;-76
2021/11/11 01:14:07;;;;;;;23.70;12.82;;;6.80;76.20;;;;;;5034002;28;20112;-76
2021/11/11 01:16:33;;;;;;;23.05;14.35;;;6.80;76.10;;;;;;5033914;28;20060;-76
2021/11/11 01:18:59;;;;;;;27.35;14.18;;;6.70;76.20;;;;;;5015608;28;20029;-76
2021/11/11 01:21:25;;;;;;;24.85;13.68;;;6.70;75.90;;;;;;5014153;28;20053;-76
2021/11/11 01:23:50;;;;;;;30.92;15.55;;;6.70;76.00;;;;;;5014478;28;20030;-76
2021/11/11 01:26:16;;;;;;;30.27;15.35;;;6.70;76.10;;;;;;5014226;28;20030;-76
2021/11/11 01:28:42;;;;;;;29.70;15.75;;;6.70;76.10;;;;;;5014323;28;20484;-76
2021/11/11 01:31:07;;;;;;;28.67;14.63;;;6.70;76.10;;;;;;5027672;28;20049;-76
2021/11/11 01:33:35;;;;;;;28.83;14.70;;;6.70;75.90;;;;;;5013908;28;20091;-76
2021/11/11 01:36:01;;;;;;;29.55;14.57;;;6.70;75.80;;;;;;5014281;28;20026;-76
2021/11/11 01:38:27;;;;;;;28.98;14.05;;;6.60;76.10;;;;;;5020293;28;20033;-76
2021/11/11 01:40:53;;;;;;;34.42;18.63;;;6.60;76.10;;;;;;5034093;28;20028;-76
2021/11/11 01:43:18;;;;;;;36.53;17.10;;;6.60;76.10;;;;;;5033887;28;20025;-76
2021/11/11 01:45:44;;;;;;;34.58;18.48;;;6.50;76.40;;;;;;5028825;28;20072;-76
2021/11/11 01:48:14;;;;;;;35.58;19.27;;;6.50;76.20;;;;;;5014041;28;20030;-76
2021/11/11 01:50:41;;;;;;;37.30;18.63;;;6.50;76.20;;;;;;5017123;28;20018;-76
2021/11/11 01:53:09;;;;;;;43.72;21.05;;;6.50;76.30;;;;;;5017706;28;20022;-76
2021/11/11 01:55:36;;;;;;;32.65;19.95;;;6.40;76.30;;;;;;5017483;28;20072;-76
2021/11/11 01:58:02;;;;;;;32.78;17.05;;;6.50;76.40;;;;;;5017712;28;20053;-76
2021/11/11 02:00:34;;;;;;;31.15;18.52;;;6.50;76.20;;;;;;5018000;28;20057;-76
2021/11/11 02:03:22;;;;;;;;;;;;;;;;;;;;;
2021/11/11 02:05:49;;;;;;;35.22;17.70;;;6.40;76.30;;;;;;5017377;28;20030;-76
2021/11/11 02:08:15;;;;;;;34.63;19.30;;;6.40;76.50;;;;;;5054236;28;20024;-76
2021/11/11 02:10:42;;;;;;;33.70;19.88;;;6.40;76.50;;;;;;5056955;28;20409;-76
2021/11/11 02:13:11;;;;;;;32.13;17.85;;;6.50;76.20;;;;;;5051966;28;20028;-77
2021/11/11 02:15:38;;;;;;;34.40;19.13;;;6.50;76.10;;;;;;5017465;28;20030;-77
2021/11/11 02:18:06;;;;;;;41.72;21.15;;;6.40;76.20;;;;;;5017188;28;20690;-76
2021/11/11 02:20:37;;;;;;;33.97;18.58;;;6.40;76.10;;;;;;5015643;28;20035;-76
2021/11/11 02:23:05;;;;;;;36.60;19.70;;;6.40;76.10;;;;;;5017081;28;20041;-75
2021/11/11 02:25:31;;;;;;;29.92;18.33;;;6.40;75.90;;;;;;5029401;28;20025;-76
2021/11/11 02:28:03;;;;;;;33.35;18.20;;;6.30;75.80;;;;;;5018684;28;20029;-77
2021/11/11 02:30:31;;;;;;;32.22;17.30;;;6.30;75.80;;;;;;5016760;28;20037;-76
2021/11/11 02:32:57;;;;;;;34.28;16.42;;;6.30;75.80;;;;;;5015550;28;20038;-76
2021/11/11 02:35:23;;;;;;;34.42;17.30;;;6.20;75.90;;;;;;5016980;28;20037;-76
2021/11/11 02:37:51;;;;;;;33.55;18.45;;;6.20;75.80;;;;;;5016928;28;20396;-76
2021/11/11 02:40:20;;;;;;;32.50;17.50;;;6.20;76.00;;;;;;5016910;28;20101;-76
2021/11/11 02:42:48;;;;;;;32.63;17.98;;;6.20;76.00;;;;;;5016942;28;20116;-76
2021/11/11 02:45:18;;;;;;;33.55;16.13;;;6.20;75.90;;;;;;5016511;28;20060;-76
2021/11/11 02:47:44;;;;;;;;;;;6.20;75.80;;;;;;5017166;28;20040;-76
2021/11/11 02:50:10;;;;;;;31.88;14.65;;;6.10;75.40;;;;;;5016632;28;20442;-76
2021/11/11 02:52:36;;;;;;;31.40;14.50;;;6.10;75.50;;;;;;5016771;28;20030;-76
2021/11/11 02:55:02;;;;;;;27.25;14.10;;;6.00;75.50;;;;;;5015272;28;20410;-76
2021/11/11 02:57:32;;;;;;;28.20;14.95;;;6.00;75.70;;;;;;5015476;28;20095;-76
2021/11/11 03:00:13;;;;;;;;;;;;;;;;;;;;;
2021/11/11 03:02:42;;;;;;;24.02;13.02;;;5.90;75.90;;;;;;5016157;28;20026;-76
2021/11/11 03:05:11;;;;;;;23.95;13.23;;;5.80;76.10;;;;;;5023168;28;20041;-76
2021/11/11 03:07:37;;;;;;;22.33;13.38;;;5.80;76.10;;;;;;5048086;28;20519;-76
2021/11/11 03:10:04;;;;;;;25.17;13.05;;;5.90;76.40;;;;;;5052737;28;20687;-76
2021/11/11 03:12:30;;;;;;;25.25;13.35;;;5.90;76.20;;;;;;5016214;28;20109;-76
2021/11/11 03:14:56;;;;;;;24.83;15.15;;;5.90;75.80;;;;;;5016407;28;20045;-75
2021/11/11 03:17:26;;;;;;;28.23;14.88;;;5.90;75.70;;;;;;5016225;28;20518;-76
2021/11/11 03:19:52;;;;;;;32.60;16.23;;;5.90;76.20;;;;;;5016222;28;20055;-76
2021/11/11 03:22:21;;;;;;;27.75;15.05;;;5.90;76.00;;;;;;5015534;28;20105;-76
2021/11/11 03:24:49;;;;;;;28.20;14.52;;;5.90;76.00;;;;;;5015949;28;20041;-76
2021/11/11 03:27:15;;;;;;;28.08;14.50;;;5.90;75.90;;;;;;5016020;28;20064;-76
2021/11/11 03:29:41;;;;;;;30.25;14.70;;;5.80;75.80;;;;;;5016181;28;20029;-76
2021/11/11 03:32:07;;;;;;;25.58;13.95;;;5.80;75.60;;;;;;5015809;28;20029;-76
2021/11/11 03:34:34;;;;;;;31.35;13.45;;;5.80;75.70;;;;;;5015703;28;20026;-76
2021/11/11 03:37:00;;;;;;;26.60;13.45;;;5.80;75.70;;;;;;5015228;28;20022;-76
2021/11/11 03:39:26;;;;;;;26.63;13.63;;;5.80;75.70;;;;;;5014609;28;20026;-76
2021/11/11 03:41:53;;;;;;;25.65;12.85;;;5.70;75.70;;;;;;5015647;28;20026;-76
2021/11/11 03:44:20;;;;;;;21.58;11.52;;;5.70;75.50;;;;;;5015655;28;20555;-75
2021/11/11 03:46:49;;;;;;;29.13;13.40;;;5.70;75.80;;;;;;5015565;28;20099;-75
2021/11/11 03:49:15;;;;;;;22.85;12.55;;;5.70;75.70;;;;;;5015807;28;20025;-76
2021/11/11 03:51:44;;;;;;;25.13;13.52;;;5.70;75.90;;;;;;5015409;28;20424;-76
2021/11/11 03:54:13;;;;;;;26.95;14.27;;;5.70;76.00;;;;;;5014826;28;20041;-76
2021/11/11 03:56:41;;;;;;;23.73;13.95;;;5.70;76.10;;;;;;5015491;28;20112;-76
2021/11/11 03:59:08;;;;;;;26.20;13.73;;;5.70;76.10;;;;;;5015533;28;20025;-76
2021/11/11 04:01:33;;;;;;;26.35;13.35;;;5.70;75.90;;;;;;5015460;28;20026;-76
2021/11/11 04:04:00;;;;;;;26.60;13.60;;;5.50;75.90;;;;;;5015292;28;20044;-76
2021/11/11 04:06:26;;;;;;;29.17;13.52;;;5.60;76.00;;;;;;5022094;28;20391;-76
2021/11/11 04:08:54;;;;;;;24.92;13.10;;;5.60;76.10;;;;;;5019708;28;20034;-76
2021/11/11 04:11:20;;;;;;;26.52;13.57;;;5.60;75.80;;;;;;5014973;28;20515;-76
2021/11/11 04:13:46;;;;;;;20.73;13.05;;;5.60;75.90;;;;;;5014891;28;20025;-76
2021/11/11 04:16:12;;;;;;;27.38;12.80;;;5.60;75.70;;;;;;5015111;28;20044;-76
2021/11/11 04:18:38;;;;;;;24.30;13.18;;;5.60;75.70;;;;;;5015340;28;20389;-76
2021/11/11 04:21:04;;;;;;;23.40;11.60;;;5.60;75.60;;;;;;5014881;28;20239;-76
2021/11/11 04:23:29;;;;;;;21.38;12.50;;;5.50;76.60;;;;;;5015046;28;20034;-76
2021/11/11 04:26:13;;;;;;;24.88;12.13;;;5.50;76.10;;;;;;5015061;28;20475;-76
2021/11/11 04:29:24;;;;;;;21.10;12.00;;;5.50;75.90;;;;;;5015002;28;20028;-75
2021/11/11 04:31:39;;;;;;;21.98;12.30;;;5.40;75.80;;;;;;5036025;28;20057;-76
2021/11/11 04:34:09;;;;;;;32.30;13.80;;;5.40;75.90;;;;;;5033146;28;20102;-76
2021/11/11 04:36:57;;;;;;;22.13;12.57;;;5.50;75.70;;;;;;5018415;28;20473;-76
2021/11/11 05:03:35;;;;;;;27.45;14.30;;;5.30;75.90;;;;;;5014772;28;20022;-76
2021/11/11 05:06:01;;;;;;;24.92;14.38;;;5.30;75.80;;;;;;5014857;28;20165;-76
2021/11/11 05:08:28;;;;;;;27.70;14.57;;;5.30;76.10;;;;;;5053966;28;20020;-76
2021/11/11 05:10:55;;;;;;;31.58;14.43;;;5.40;76.00;;;;;;5052800;28;20033;-76
2021/11/11 05:13:21;;;;;;;25.20;13.80;;;5.40;76.00;;;;;;5038619;28;20088;-76
2021/11/11 05:15:47;;;;;;;24.80;14.95;;;5.40;75.70;;;;;;5034101;28;20034;-76
2021/11/11 05:18:13;;;;;;;28.15;15.43;;;5.30;75.90;;;;;;5032818;28;20022;-76
2021/11/11 05:20:39;;;;;;;28.10;14.75;;;5.30;76.50;;;;;;5023385;28;20516;-75
2021/11/11 05:23:05;;;;;;;23.98;14.00;;;5.30;76.30;;;;;;5012949;28;20069;-76
2021/11/11 05:25:31;;;;;;;27.38;14.40;;;5.30;75.90;;;;;;5017563;28;20591;-76
2021/11/11 05:27:57;;;;;;;27.67;14.50;;;5.30;76.00;;;;;;5018275;28;20017;-76
2021/11/11 05:30:24;;;;;;;25.73;14.55;;;5.20;76.30;;;;;;5018162;28;20038;-76
2021/11/11 05:32:50;;;;;;;29.73;14.75;;;5.20;76.00;;;;;;5017946;28;20052;-76
2021/11/11 05:35:16;;;;;;;24.83;15.05;;;5.20;75.90;;;;;;5020460;28;20053;-76
2021/11/11 05:37:43;;;;;;;28.70;15.80;;;5.20;76.20;;;;;;5037778;28;20018;-75
2021/11/11 05:40:10;;;;;;;22.95;14.57;;;5.20;76.10;;;;;;5023642;28;20687;-76
2021/11/11 05:42:36;;;;;;;29.85;15.02;;;5.30;76.20;;;;;;5017933;28;20029;-76
2021/11/11 05:45:03;;;;;;;25.83;14.75;;;5.20;76.10;;;;;;5017918;28;20121;-76
2021/11/11 05:47:29;;;;;;;24.33;15.05;;;5.20;76.10;;;;;;5018170;28;20079;-76
2021/11/11 05:49:54;;;;;;;26.25;15.45;;;5.20;76.20;;;;;;5017870;28;20026;-76
2021/11/11 05:52:20;;;;;;;21.00;13.88;;;5.20;76.10;;;;;;5017986;28;20388;-76
2021/11/11 05:54:46;;;;;;;25.77;14.45;;;5.20;76.10;;;;;;5017770;28;20026;-76
2021/11/11 05:57:11;;;;;;;26.73;14.07;;;5.20;76.10;;;;;;5017858;28;20188;-76
2021/11/11 05:59:39;;;;;;;28.05;14.40;;;5.20;76.20;;;;;;5017847;28;20022;-76
2021/11/11 06:02:08;;;;;;;26.73;14.95;;;5.20;76.10;;;;;;5017361;28;20025;-76
2021/11/11 06:04:34;;;;;;;26.33;14.25;;;5.10;76.10;;;;;;5017684;28;20109;-76
2021/11/11 06:07:00;;;;;;;29.98;14.55;;;5.00;76.20;;;;;;5033909;28;20059;-76
2021/11/11 06:09:26;;;;;;;24.88;13.77;;;5.00;76.30;;;;;;5052410;28;20047;-76
2021/11/11 06:11:51;;;;;;;29.33;14.43;;;5.00;76.40;;;;;;5016279;28;20032;-76
2021/11/11 06:14:17;;;;;;;28.17;14.38;;;5.00;76.90;;;;;;5016073;28;20037;-76
2021/11/11 06:16:43;;;;;;;23.83;13.82;;;5.00;77.00;;;;;;5015993;28;20064;-75
2021/11/11 06:19:10;;;;;;;25.73;14.40;;;5.00;76.80;;;;;;5017592;28;20025;-76
2021/11/11 06:21:39;;;;;;;26.95;14.25;;;5.00;76.70;;;;;;5017213;28;20049;-76
2021/11/11 06:24:06;;;;;;;24.15;12.55;;;5.00;76.70;;;;;;5017388;28;20030;-75
2021/11/11 06:26:32;;;;;;;25.52;13.40;;;5.10;76.40;;;;;;5017767;28;20061;-76
2021/11/11 06:28:58;;;;;;;27.50;12.57;;;5.00;76.20;;;;;;5015920;28;20870;-76
2021/11/11 06:31:24;;;;;;;26.50;14.65;;;5.00;76.10;;;;;;5017076;28;20061;-76
2021/11/11 06:33:50;;;;;;;28.27;12.40;;;5.10;76.30;;;;;;5014918;28;20032;-76
2021/11/11 06:36:15;;;;;;;21.95;12.50;;;5.00;76.30;;;;;;5026543;28;20049;-76
2021/11/11 06:38:41;;;;;;;26.35;14.15;;;5.00;76.30;;;;;;5035077;28;20032;-76
2021/11/11 06:41:07;;;;;;;24.77;13.13;;;4.90;76.50;;;;;;5036703;28;20022;-76
2021/11/11 06:43:33;;;;;;;22.63;13.65;;;4.90;76.60;;;;;;5036698;28;20606;-76
2021/11/11 06:46:00;;;;;;;19.70;11.70;;;4.90;76.30;;;;;;5022312;28;20030;-76
2021/11/11 06:48:26;;;;;;;27.58;13.85;;;4.90;76.00;;;;;;5016770;28;20108;-76
2021/11/11 06:50:52;;;;;;;21.23;12.35;;;4.90;76.20;;;;;;5016515;28;20018;-76
2021/11/11 06:53:18;;;;;;;22.98;13.43;;;4.90;75.90;;;;;;5031854;28;20040;-76
2021/11/11 06:55:46;;;;;;;22.63;13.13;;;4.70;75.50;;;;;;5021367;28;20413;-75
2021/11/11 06:58:13;;;;;;;24.75;13.15;;;4.70;75.80;;;;;;5016665;28;20026;-76
2021/11/11 07:00:39;;;;;;;20.67;12.40;;;4.70;75.60;;;;;;5016574;28;20030;-75
2021/11/11 07:03:05;;;;;;;22.13;12.38;;;4.70;75.90;;;;;;5016591;28;20026;-76
2021/11/11 07:05:31;;;;;;;25.55;14.05;;;4.60;75.60;;;;;;5016289;28;20032;-76
2021/11/11 07:07:57;;;;;;;26.70;14.02;;;4.60;75.60;;;;;;5029283;28;20022;-76
2021/11/11 07:10:24;;;;;;;25.85;14.35;;;4.60;75.80;;;;;;5031427;28;20047;-76
2021/11/11 07:12:50;;;;;;;21.17;12.93;;;4.50;74.80;;;;;;5036333;28;20057;-75
2021/11/11 07:15:17;;;;;;;22.55;13.13;;;4.50;76.00;;;;;;5039827;28;20422;-75
2021/11/11 07:17:44;;;;;;;25.90;14.25;;;4.40;75.80;;;;;;5041416;28;20103;-74
2021/11/11 07:20:14;;;;;;;26.00;14.73;;;4.30;75.50;;;;;;5041374;28;20026;-76
2021/11/11 07:22:43;;;;;;;22.50;13.73;;;4.40;76.40;;;;;;5043450;28;20107;-76
2021/11/11 07:25:10;;;;;;;25.10;14.20;;;4.40;75.60;;;;;;5044610;28;20519;-75
2021/11/11 07:27:36;;;;;;;24.33;13.60;;;4.40;75.80;;;;;;5042923;28;20100;-76
2021/11/11 07:30:10;;;;;;;20.83;12.82;;;4.50;75.70;;;;;;5031103;28;20037;-76
2021/11/11 07:32:37;;;;;;;21.67;12.82;;;4.40;75.20;;;;;;5017032;28;20032;-76
2021/11/11 07:35:04;;;;;;;34.30;17.60;;;4.60;75.30;;;;;;5015513;28;20582;-76
2021/11/11 07:37:30;;;;;;;29.95;16.13;;;4.70;74.80;;;;;;5015851;28;20030;-75
2021/11/11 07:39:56;;;;;;;35.08;18.55;;;4.70;74.40;;;;;;5015919;28;20040;-78
2021/11/11 07:42:22;;;;;;;31.48;16.92;;;4.70;75.20;;;;;;5015861;28;20062;-75
2021/11/11 07:48:48;;;;;;;30.10;16.70;;;4.60;76.60;;;;;;5064738;28;20429;-75
2021/11/11 07:51:13;;;;;;;31.67;16.73;;;4.70;76.40;;;;;;5051576;28;20037;-75
2021/11/11 07:53:39;;;;;;;27.50;16.50;;;4.80;76.70;;;;;;5050119;28;20018;-74
2021/11/11 07:56:06;;;;;;;28.85;15.55;;;5.00;76.80;;;;;;5050915;28;20112;-75
2021/11/11 07:58:32;;;;;;;37.15;21.52;;;5.10;77.80;;;;;;5051289;28;20036;-78
2021/11/11 08:00:58;;;;;;;36.55;20.70;;;5.20;78.40;;;;;;5077773;28;20025;-78
2021/11/11 08:03:24;;;;;;;31.58;17.95;;;5.40;78.10;;;;;;5049147;28;20022;-81
2021/11/11 08:05:50;;;;;;;29.65;17.63;;;5.50;77.50;;;;;;5050501;28;20033;-77
2021/11/11 08:08:15;;;;;;;34.42;19.23;;;5.70;76.60;;;;;;5051563;28;20025;-77
2021/11/11 08:10:41;;;;;;;28.90;19.48;;;5.70;77.00;;;;;;5050584;28;20029;-77
2021/11/11 08:13:07;;;;;;;40.90;22.92;;;5.80;76.60;;;;;;5065882;28;20017;-77
2021/11/11 08:15:33;;;;;;;39.63;23.33;;;5.80;76.90;;;;;;5051066;28;20025;-77
2021/11/11 08:17:59;;;;;;;43.42;24.23;;;5.90;76.80;;;;;;5050375;28;20040;-77
2021/11/11 08:20:25;;;;;;;36.78;22.60;;;6.00;76.40;;;;;;5047041;28;20034;-76
2021/11/11 08:22:51;;;;;;;39.90;21.83;;;6.20;76.00;;;;;;5045672;23;20101;-77
2021/11/11 08:25:18;;;;;;;26.60;18.73;;;6.20;76.20;;;;;;5043983;28;20017;-78
2021/11/11 08:27:45;;;;;;;33.08;19.08;;;6.30;76.10;;;;;;5050580;22;20523;-76
2021/11/11 08:30:14;;;;;;;33.47;20.38;;;6.40;76.40;;;;;;5029012;28;20061;-76
2021/11/11 08:32:41;;;;;;;32.72;19.38;;;6.40;77.00;;;;;;5029249;28;20068;-76
2021/11/11 08:35:07;;;;;;;40.08;26.13;;;6.50;77.10;;;;;;5028003;28;20526;-77
2021/11/11 08:37:33;;;;;;;39.35;26.95;;;6.50;77.00;;;;;;5047305;28;20061;-77
2021/11/11 08:39:58;;;;;;;48.42;28.85;;;6.50;77.30;;;;;;5015065;28;20070;-89
2021/11/11 08:42:24;;;;;;;48.88;27.38;;;6.50;77.40;;;;;;5025910;28;22995;-80
2021/11/11 08:44:50;;;;;;;43.25;25.30;;;6.60;78.00;;;;;;5030702;28;20041;-80
2021/11/11 08:47:18;;;;;;;40.08;20.98;;;6.70;77.70;;;;;;5030336;28;20488;-81
2021/11/11 08:49:45;;;;;;;39.40;22.25;;;6.70;77.60;;;;;;5029525;28;20034;-80
2021/11/11 08:52:12;;;;;;;42.90;23.20;;;6.80;77.70;;;;;;5030328;28;20025;-82
2021/11/11 08:54:38;;;;;;;50.92;27.08;;;6.90;78.40;;;;;;5024690;28;20097;-81
2021/11/11 08:57:05;;;;;;;80.03;40.10;;;6.90;79.20;;;;;;5030314;28;20038;-80
2021/11/11 08:59:31;;;;;;;42.22;23.83;;;7.00;78.10;;;;;;5019818;28;20064;-80
2021/11/11 09:01:57;;;;;;;32.83;20.58;;;7.10;78.20;;;;;;5014446;28;20669;-80
2021/11/11 09:04:23;;;;;;;34.40;20.05;;;7.20;77.80;;;;;;5013558;28;20030;-80
2021/11/11 09:06:50;;;;;;;32.53;21.58;;;7.40;77.80;;;;;;5018086;28;20101;-81
2021/11/11 09:09:19;;;;;;;29.75;21.52;;;7.90;77.60;;;;;;5016714;28;20100;-80
2021/11/11 09:11:46;;;;;;;22.00;19.70;;;8.70;75.10;;;;;;5016313;28;20030;-80
2021/11/11 09:14:12;;;;;;;19.88;16.23;;;9.70;72.90;;;;;;5016813;28;20075;-81
2021/11/11 09:16:38;;;;;;;28.60;20.45;;;10.60;70.10;;;;;;5015587;28;20030;-82
2021/11/11 09:19:08;;;;;;;55.20;32.35;;;11.20;68.00;;;;;;5016258;28;20361;-81
2021/11/11 09:21:34;;;;;;;77.72;38.97;;;11.40;67.00;;;;;;5004297;28;20026;-82
2021/11/11 09:24:00;;;;;;;68.93;33.33;;;11.30;67.30;;;;;;5014645;28;20080;-81
2021/11/11 09:26:27;;;;;;;31.15;18.80;;;11.00;68.10;;;;;;5013953;28;20029;-80
2021/11/11 09:28:53;;;;;;;21.17;14.95;;;10.60;69.10;;;;;;5016835;28;20053;-80
2021/11/11 09:31:20;;;;;;;24.02;15.40;;;10.30;70.70;;;;;;5016141;28;20022;-82
2021/11/11 09:33:46;;;;;;;21.98;13.30;;;10.10;72.00;;;;;;5015800;28;20697;-82
2021/11/11 09:36:14;;;;;;;15.95;12.32;;;10.00;72.30;;;;;;5016221;28;20094;-80
2021/11/11 09:38:41;;;;;;;14.40;9.50;;;10.00;72.60;;;;;;5031976;28;20034;-80
2021/11/11 09:41:10;;;;;;;13.55;10.02;;;10.00;73.10;;;;;;5015876;28;20070;-81
2021/11/11 09:43:37;;;;;;;15.90;9.57;;;10.00;72.40;;;;;;5015761;28;20056;-79
2021/11/11 09:46:05;;;;;;;14.80;9.52;;;10.00;73.00;;;;;;5012180;28;20097;-79
2021/11/11 09:48:37;;;;;;;20.33;10.32;;;9.80;73.10;;;;;;5031049;28;20026;-79
2021/11/11 09:51:09;;;;;;;16.77;9.23;;;9.70;74.40;;;;;;5014897;28;20036;-79
2021/11/11 09:53:44;;;;;;;17.45;11.27;;;9.60;75.10;;;;;;5026774;28;20480;-79
2021/11/11 09:58:55;;;;;;;40.40;21.90;;;9.60;75.40;;;;;;5020541;28;20075;-79
2021/11/11 10:01:23;;;;;;;73.57;35.85;;;9.60;75.30;;;;;;5011971;28;20033;-79
2021/11/11 10:03:50;;;;;;;70.65;37.55;;;9.70;75.10;;;;;;5015142;28;20030;-79
2021/11/11 10:06:22;;;;;;;69.15;33.78;;;9.70;75.40;;;;;;5015046;28;20026;-79
2021/11/11 10:08:57;;;;;;;66.60;28.92;;;9.70;76.20;;;;;;5013734;28;20029;-79
2021/11/11 10:11:51;;;;;;;45.08;24.25;;;9.80;75.90;;;;;;5014766;28;20022;-79
2021/11/11 10:14:40;;;;;;;25.13;15.18;;;9.90;76.80;;;;;;5009071;28;20048;-79
2021/11/11 10:17:08;;;;;;;28.70;16.13;;;9.90;75.90;;;;;;5021308;28;20034;-79
2021/11/11 10:19:37;;;;;;;22.45;12.35;;;10.00;76.30;;;;;;5015231;28;20041;-79
2021/11/11 10:22:19;;;;;;;19.38;12.75;;;10.00;76.50;;;;;;5014355;28;20026;-80
2021/11/11 10:25:01;;;;;;;21.77;12.02;;;9.90;76.10;;;;;;5029636;28;20018;-79
2021/11/11 10:27:37;;;;;;;19.70;11.23;;;10.10;76.60;;;;;;5011419;28;20476;-80
2021/11/11 10:30:27;;;;;;;20.98;11.88;;;10.20;75.40;;;;;;5013399;28;20575;-80
2021/11/11 10:33:06;;;;;;;24.65;13.15;;;10.10;75.20;;;;;;5012499;28;20042;-80
2021/11/11 10:35:35;;;;;;;27.52;13.77;;;10.20;75.30;;;;;;5028065;28;20065;-80
2021/11/11 10:38:09;;;;;;;25.42;12.40;;;10.30;75.80;;;;;;5014135;28;20052;-80
2021/11/11 10:40:47;;;;;;;23.05;12.15;;;10.40;74.80;;;;;;5016035;28;20101;-81
2021/11/11 10:43:21;;;;;;;27.05;15.95;;;10.40;74.10;;;;;;5013655;28;20037;-81
2021/11/11 10:45:50;;;;;;;23.67;13.50;;;10.50;74.30;;;;;;5013211;28;20110;-80
2021/11/11 10:48:18;;;;;;;25.35;14.38;;;10.50;74.20;;;;;;5013318;28;20033;-80
2021/11/11 10:50:56;;;;;;;37.03;16.80;;;10.50;74.10;;;;;;5029291;28;20048;-80
2021/11/11 10:53:27;;;;;;;47.75;21.00;;;10.60;74.40;;;;;;5013814;28;20062;-77
2021/11/11 10:55:58;;;;;;;32.38;15.73;;;10.70;74.50;;;;;;5029337;28;20037;-78
2021/11/11 10:58:26;;;;;;;37.13;16.40;;;10.80;73.70;;;;;;5013180;28;20105;-85
2021/11/11 11:01:04;;;;;;;32.45;16.77;;;10.80;73.50;;;;;;5014480;28;20628;-83
2021/11/11 11:03:31;;;;;;;33.72;16.52;;;10.90;74.30;;;;;;5013889;28;20025;-88
2021/11/11 11:05:59;;;;;;;24.05;13.98;;;11.00;73.50;;;;;;5006374;28;20048;-79
2021/11/11 11:08:38;;;;;;;34.15;15.95;;;11.10;72.90;;;;;;5022281;28;20034;-80
2021/11/11 11:11:29;;;;;;;26.55;13.43;;;11.10;72.60;;;;;;5010964;28;20084;-87
2021/11/11 11:14:02;;;;;;;28.02;14.82;;;11.20;72.70;;;;;;5029474;28;20036;-80
2021/11/11 11:16:33;;;;;;;30.40;16.40;;;11.20;71.80;;;;;;5014217;28;20451;-79
2021/11/11 11:19:03;;;;;;;34.95;17.00;;;11.30;72.60;;;;;;5013978;28;20022;-83
2021/11/11 11:21:37;;;;;;;24.38;14.30;;;11.30;71.50;;;;;;5011368;28;20034;-79
2021/11/11 11:24:06;;;;;;;26.95;14.20;;;11.30;71.40;;;;;;5011716;28;20053;-77
2021/11/11 11:26:53;;;;;;;24.45;12.93;;;11.40;71.50;;;;;;5012955;28;20528;-77
2021/11/11 11:29:36;;;;;;;29.20;15.30;;;11.50;71.90;;;;;;5012862;28;20069;-76
2021/11/11 11:32:13;;;;;;;33.65;17.85;;;11.50;71.80;;;;;;5011520;28;20022;-77
2021/11/11 11:34:46;;;;;;;31.67;16.40;;;11.60;71.80;;;;;;5014081;28;20053;-76
2021/11/11 11:37:16;;;;;;;33.90;18.13;;;11.70;71.60;;;;;;5028959;28;20038;-77
2021/11/11 11:39:45;;;;;;;30.15;17.17;;;11.60;71.10;;;;;;5012040;28;20451;-76
2021/11/11 11:42:12;;;;;;;33.35;15.02;;;11.50;71.30;;;;;;5010984;28;20500;-78
2021/11/11 11:44:53;;;;;;;22.40;14.85;;;11.60;71.60;;;;;;5013527;28;20030;-76
2021/11/11 11:47:31;;;;;;;31.10;16.98;;;11.60;72.00;;;;;;5013704;28;20036;-75
2021/11/11 11:50:24;;;;;;;30.88;18.98;;;11.70;72.20;;;;;;5014196;28;20050;-77
2021/11/11 11:52:58;;;;;;;27.75;16.20;;;11.70;72.00;;;;;;5022779;28;20037;-78
2021/11/11 11:58:00;;;;;;;26.90;14.70;;;11.90;72.30;;;;;;5009358;28;20038;-77
2021/11/11 12:09:09;;;;;;;29.35;15.68;;;12.20;68.70;;;;;;5010189;28;20531;-79
2021/11/11 12:12:07;;;;;;;33.45;17.63;;;12.30;68.10;;;;;;5010227;28;20524;-84
2021/11/11 12:29:55;;;;;;;31.30;14.50;;;12.50;66.00;;;;;;5010884;28;20093;-80
2021/11/11 12:38:43;;;;;;;28.58;15.48;;;12.70;65.70;;;;;;5015584;28;20586;-80
2021/11/11 12:41:17;;;;;;;24.75;13.52;;;12.70;65.70;;;;;;5015546;28;20630;-80
2021/11/11 12:43:44;;;;;;;26.52;11.95;;;12.70;65.40;;;;;;5015414;28;20018;-80
2021/11/11 12:46:41;;;;;;;25.02;13.38;;;12.70;64.80;;;;;;5016611;28;20504;-79
2021/11/11 12:49:25;;;;;;;29.20;14.65;;;12.70;65.20;;;;;;5014716;28;20060;-78
2021/11/11 12:52:20;;;;;;;23.88;12.32;;;12.80;65.40;;;;;;5027156;28;20033;-80
2021/11/11 12:54:47;;;;;;;21.92;14.35;;;12.80;65.60;;;;;;5015117;28;20032;-78
2021/11/11 12:57:14;;;;;;;24.60;13.30;;;12.80;65.10;;;;;;5030675;28;20058;-78
2021/11/11 12:59:41;;;;;;;22.77;13.98;;;12.90;65.90;;;;;;5014217;28;20113;-78
2021/11/11 13:02:09;;;;;;;28.33;15.02;;;12.80;65.50;;;;;;5016152;28;20010;-78
2021/11/11 13:05:07;;;;;;;30.40;15.32;;;12.90;65.50;;;;;;5015027;28;20480;-78
2021/11/11 13:07:33;;;;;;;25.73;14.57;;;12.90;66.00;;;;;;4992742;28;20049;-78
2021/11/11 13:10:19;;;;;;;30.98;14.90;;;12.90;65.20;;;;;;5030127;28;20029;-78
2021/11/11 13:13:12;;;;;;;23.85;13.05;;;12.90;65.40;;;;;;5013811;28;20496;-78
2021/11/11 13:15:42;;;;;;;23.15;12.95;;;12.80;65.30;;;;;;5016286;28;20487;-78
2021/11/11 13:18:09;;;;;;;25.67;14.65;;;12.80;65.50;;;;;;5016404;28;20057;-78
2021/11/11 13:20:46;;;;;;;28.45;15.40;;;12.90;65.70;;;;;;5015692;28;20033;-78
2021/11/11 13:23:27;;;;;;;27.88;15.52;;;13.00;65.80;;;;;;5016144;28;20028;-79
2021/11/11 13:26:49;;;;;;;33.33;14.60;;;13.20;66.10;;;;;;5015269;28;20180;-78
2021/11/11 14:00:21;;;;;;;23.33;12.57;;;13.30;62.60;;;;;;5015602;28;20061;-81
2021/11/11 16:04:00;;;;;;;14.23;9.05;;;12.90;61.50;;;;;;5009568;28;20030;-78
2021/11/11 16:20:07;;;;;;;15.38;9.55;;;12.50;65.00;;;;;;5015640;28;20033;-79
2021/11/11 16:27:31;;;;;;;13.30;9.07;;;12.30;64.30;;;;;;5017078;28;20025;-79
2021/11/11 16:30:11;;;;;;;13.93;8.55;;;12.30;64.60;;;;;;5020603;28;20029;-78
2021/11/11 16:32:37;;;;;;;16.23;9.10;;;12.10;64.60;;;;;;5016340;28;20040;-78
2021/11/11 16:35:05;;;;;;;16.08;9.23;;;12.10;64.90;;;;;;5017329;28;20400;-77
2021/11/11 16:37:31;;;;;;;14.82;7.85;;;12.10;65.10;;;;;;5016736;28;20032;-77
2021/11/11 16:39:56;;;;;;;15.82;9.65;;;12.00;65.90;;;;;;5017268;28;20476;-77
2021/11/11 16:42:22;;;;;;;16.50;9.32;;;11.90;65.60;;;;;;5014803;28;20101;-77